Kuujjuaq, Canada
Current Conditions -  °F | °C
As of 11:00 AM on Monday 24 Nov 2014 (Local Time) from CYVP Reporting Station
Light Snow Light Snow  
Wind Chill:   Ceiling: 5100
Heat Index: 18°   Visibility: 15mi
Dew Point: 10°   Wind: 6mph
Humidity: 73%   Direction: 240°WSW
Pressure: 29.82"   Gusts: NA
Location:  58.22°N, 68.37°W
Report Text: CYVP 241600Z 24005KT 15SM -SN OVC051 M08/M12 A2982 RMK SC8 SLP101
Loading
Personal Weather Stations






























Interactive Weather Map New forecast layout! Learn more

10-Day Weather Forecast

Advertisements
Track Severe Weather on mobile